createdAt,value
2018-08-12T00:00:31.035Z,15.70
2018-08-12T00:01:30.972Z,15.77
2018-08-12T00:03:23.861Z,15.86
2018-08-12T00:04:23.826Z,15.94
2018-08-12T00:06:16.753Z,15.83
2018-08-12T00:07:16.694Z,15.82
2018-08-12T00:09:09.578Z,15.75
2018-08-12T00:10:09.537Z,15.80
2018-08-12T00:12:02.412Z,15.88
2018-08-12T00:13:02.380Z,15.84
2018-08-12T00:14:55.289Z,15.86
2018-08-12T00:15:55.234Z,15.83
2018-08-12T00:17:48.148Z,15.79
2018-08-12T00:18:48.090Z,15.88
2018-08-12T00:20:41.078Z,16.01
2018-08-12T00:21:40.948Z,15.92
2018-08-12T00:22:40.918Z,16.00
2018-08-12T00:23:40.884Z,16.00
2018-08-12T00:24:40.870Z,16.02
2018-08-12T00:25:40.836Z,15.97
2018-08-12T00:26:40.814Z,15.92
2018-08-12T00:27:40.782Z,15.98
2018-08-12T00:28:40.755Z,15.92
2018-08-12T00:29:40.736Z,16.01
2018-08-12T00:30:40.704Z,15.97
2018-08-12T00:31:40.678Z,15.94
2018-08-12T00:32:40.654Z,16.00
2018-08-12T00:33:40.625Z,16.10
2018-08-12T00:34:40.608Z,16.04
2018-08-12T00:35:40.573Z,16.02
2018-08-12T00:36:40.550Z,15.98
2018-08-12T00:37:40.527Z,15.86
2018-08-12T00:38:40.494Z,15.94
2018-08-12T00:39:40.477Z,15.79
2018-08-12T00:40:40.450Z,15.77
2018-08-12T00:41:40.419Z,15.68
2018-08-12T00:42:40.413Z,15.65
2018-08-12T00:43:40.365Z,15.55
2018-08-12T00:44:40.341Z,15.58
2018-08-12T00:45:40.317Z,15.52
2018-08-12T00:46:40.289Z,15.49
2018-08-12T00:47:40.262Z,15.54
2018-08-12T00:48:40.238Z,15.54
2018-08-12T00:49:40.212Z,15.51
2018-08-12T00:50:40.183Z,15.43
2018-08-12T00:51:40.165Z,15.40
2018-08-12T00:52:40.131Z,15.39
2018-08-12T00:53:40.116Z,15.44
2018-08-12T00:54:40.089Z,15.42
2018-08-12T00:55:40.055Z,15.55
2018-08-12T00:56:40.036Z,15.49
2018-08-12T00:57:40.003Z,15.54
2018-08-12T00:58:39.975Z,15.59
2018-08-12T00:59:39.953Z,15.68
2018-08-12T01:00:39.924Z,15.70
2018-08-12T01:01:39.908Z,15.62
2018-08-12T01:02:39.872Z,15.59
2018-08-12T01:03:39.849Z,15.62
2018-08-12T01:04:39.821Z,15.68
2018-08-12T01:05:39.794Z,15.67
2018-08-12T01:06:39.770Z,15.61
2018-08-12T01:07:39.746Z,15.61
2018-08-12T01:08:39.722Z,15.52
2018-08-12T01:09:39.691Z,15.49
2018-08-12T01:10:39.668Z,15.43
2018-08-12T01:11:39.639Z,15.43
2018-08-12T01:12:39.610Z,15.47
2018-08-12T01:13:39.594Z,15.44
2018-08-12T01:14:39.566Z,15.46
2018-08-12T01:15:39.536Z,15.40
2018-08-12T01:16:39.508Z,15.33
2018-08-12T01:17:39.488Z,15.33
2018-08-12T01:18:39.455Z,15.43
2018-08-12T01:19:39.432Z,15.35
2018-08-12T01:20:39.406Z,15.28
2018-08-12T01:21:39.380Z,15.19
2018-08-12T01:22:39.355Z,15.24
2018-08-12T01:23:39.326Z,15.28
2018-08-12T01:24:39.301Z,15.29
2018-08-12T01:25:39.277Z,15.24
2018-08-12T01:26:39.244Z,15.28
2018-08-12T01:27:39.226Z,15.28
2018-08-12T01:28:39.199Z,15.39
2018-08-12T01:29:39.168Z,15.40
2018-08-12T01:30:39.142Z,15.44
2018-08-12T01:31:39.119Z,15.42
2018-08-12T01:32:39.098Z,15.42
2018-08-12T01:33:39.067Z,15.25
2018-08-12T01:34:39.042Z,15.28
2018-08-12T01:35:39.017Z,15.33
2018-08-12T01:36:38.984Z,15.28
2018-08-12T01:37:38.967Z,15.24
2018-08-12T01:38:38.931Z,15.25
2018-08-12T01:39:38.912Z,15.17
2018-08-12T01:40:38.884Z,15.15
2018-08-12T01:41:38.854Z,15.25
2018-08-12T01:42:38.834Z,15.19
2018-08-12T01:43:38.802Z,15.24
2018-08-12T01:44:38.779Z,15.24
2018-08-12T01:45:38.758Z,15.22
2018-08-12T01:46:38.723Z,15.28
2018-08-12T01:47:38.706Z,15.22
2018-08-12T01:48:38.672Z,15.27
2018-08-12T01:49:38.648Z,15.28
2018-08-12T01:50:38.630Z,15.27
2018-08-12T01:51:38.660Z,15.27
2018-08-12T01:52:38.574Z,15.10
2018-08-12T01:53:38.541Z,15.10
2018-08-12T01:54:38.516Z,15.09
2018-08-12T01:55:38.493Z,15.06
2018-08-12T01:56:38.465Z,15.03
2018-08-12T01:57:38.439Z,15.10
2018-08-12T01:58:38.414Z,15.03
2018-08-12T01:59:38.383Z,15.14
2018-08-12T02:00:38.361Z,15.07
2018-08-12T02:01:38.334Z,15.06
2018-08-12T02:02:38.312Z,15.03
2018-08-12T02:03:38.282Z,15.11
2018-08-12T02:04:38.261Z,15.06
2018-08-12T02:05:38.232Z,15.11
2018-08-12T02:06:38.209Z,15.09
2018-08-12T02:07:38.182Z,15.11
2018-08-12T02:08:38.157Z,14.91
2018-08-12T02:09:38.126Z,14.92
2018-08-12T02:10:38.101Z,14.91
2018-08-12T02:11:38.073Z,14.94
2018-08-12T02:12:38.052Z,15.00
2018-08-12T02:13:38.020Z,15.03
2018-08-12T02:14:37.995Z,15.10
2018-08-12T02:15:37.970Z,15.10
2018-08-12T02:16:37.942Z,15.09
2018-08-12T02:17:37.920Z,15.07
2018-08-12T02:18:37.894Z,15.10
2018-08-12T02:19:37.862Z,15.09
2018-08-12T02:20:37.839Z,14.96
2018-08-12T02:21:37.817Z,14.94
2018-08-12T02:22:37.789Z,14.96
2018-08-12T02:23:37.762Z,14.84
2018-08-12T02:24:37.739Z,14.81
2018-08-12T02:25:37.708Z,14.82
2018-08-12T02:26:37.687Z,14.79
2018-08-12T02:27:37.652Z,14.79
2018-08-12T02:28:37.626Z,14.85
2018-08-12T02:29:37.604Z,14.82
2018-08-12T02:30:37.573Z,14.79
2018-08-12T02:31:37.555Z,14.77
2018-08-12T02:32:37.526Z,14.85
2018-08-12T02:33:37.497Z,14.82
2018-08-12T02:34:37.477Z,14.85
2018-08-12T02:35:37.447Z,14.77
2018-08-12T02:36:37.425Z,14.81
2018-08-12T02:37:37.396Z,14.79
2018-08-12T02:38:37.366Z,14.79
2018-08-12T02:39:37.347Z,14.79
2018-08-12T02:40:37.321Z,14.69
2018-08-12T02:41:37.291Z,14.70
2018-08-12T02:42:37.263Z,14.78
2018-08-12T02:43:37.234Z,14.69
2018-08-12T02:44:37.208Z,14.81
2018-08-12T02:45:37.189Z,14.86
2018-08-12T02:46:37.158Z,14.86
2018-08-12T02:47:37.134Z,14.82
2018-08-12T02:48:37.112Z,14.82
2018-08-12T02:49:37.080Z,14.77
2018-08-12T02:50:37.053Z,14.81
2018-08-12T02:51:37.027Z,14.77
2018-08-12T02:52:37.009Z,14.72
2018-08-12T02:53:36.982Z,14.82
2018-08-12T02:54:36.954Z,14.81
2018-08-12T02:55:36.918Z,14.73
2018-08-12T02:56:36.902Z,14.78
2018-08-12T02:57:36.869Z,14.82
2018-08-12T02:58:36.848Z,14.82
2018-08-12T02:59:36.819Z,14.79
2018-08-12T03:00:36.790Z,14.81
2018-08-12T03:01:36.770Z,14.72
2018-08-12T03:02:36.734Z,14.69
2018-08-12T03:03:36.717Z,14.72
2018-08-12T03:04:36.687Z,14.72
2018-08-12T03:05:36.658Z,14.65
2018-08-12T03:06:36.640Z,14.58
2018-08-12T03:07:36.604Z,14.63
2018-08-12T03:08:36.587Z,14.68
2018-08-12T03:09:36.564Z,14.72
2018-08-12T03:10:36.523Z,14.70
2018-08-12T03:11:36.501Z,14.66
2018-08-12T03:12:36.474Z,14.73
2018-08-12T03:13:36.454Z,14.78
2018-08-12T03:14:36.426Z,14.69
2018-08-12T03:15:36.397Z,14.72
2018-08-12T03:16:36.377Z,14.73
2018-08-12T03:17:36.348Z,14.68
2018-08-12T03:18:36.318Z,14.72
2018-08-12T03:19:36.296Z,14.70
2018-08-12T03:20:36.271Z,14.68
2018-08-12T03:21:36.243Z,14.55
2018-08-12T03:22:36.395Z,14.59
2018-08-12T03:23:36.189Z,14.62
2018-08-12T03:24:36.161Z,14.60
2018-08-12T03:25:36.136Z,14.60
2018-08-12T03:26:36.108Z,14.62
2018-08-12T03:27:36.078Z,14.59
2018-08-12T03:28:36.061Z,14.58
2018-08-12T03:29:36.037Z,14.60
2018-08-12T03:30:36.009Z,14.62
2018-08-12T03:31:35.980Z,14.62
2018-08-12T03:32:35.951Z,14.65
2018-08-12T03:33:35.989Z,14.65
2018-08-12T03:34:35.896Z,14.70
2018-08-12T03:35:35.879Z,14.60
2018-08-12T03:36:35.849Z,14.70
2018-08-12T03:37:35.820Z,14.78
2018-08-12T03:38:35.800Z,14.78
2018-08-12T03:39:35.765Z,14.72
2018-08-12T03:40:35.741Z,14.82
2018-08-12T03:41:35.712Z,14.79
2018-08-12T03:42:35.687Z,14.72
2018-08-12T03:43:35.661Z,14.73
2018-08-12T03:44:35.639Z,14.72
2018-08-12T03:45:35.610Z,14.78
2018-08-12T03:46:35.586Z,14.73
2018-08-12T03:47:35.556Z,14.70
2018-08-12T03:48:35.528Z,14.79
2018-08-12T03:49:35.511Z,14.78
2018-08-12T03:50:35.481Z,14.77
2018-08-12T03:51:35.454Z,14.68
2018-08-12T03:52:35.433Z,14.78
2018-08-12T03:53:35.405Z,14.72
2018-08-12T03:54:35.380Z,14.73
2018-08-12T03:55:35.347Z,14.78
2018-08-12T03:56:35.364Z,14.84
2018-08-12T03:57:35.294Z,14.84
2018-08-12T03:58:35.268Z,14.78
2018-08-12T03:59:35.249Z,14.77
2018-08-12T04:00:35.224Z,14.73
2018-08-12T04:01:35.191Z,14.88
2018-08-12T04:02:35.169Z,14.82
2018-08-12T04:03:35.138Z,14.84
2018-08-12T04:04:35.113Z,14.78
2018-08-12T04:05:35.087Z,14.89
2018-08-12T04:06:35.057Z,14.79
2018-08-12T04:07:35.039Z,14.84
2018-08-12T04:08:35.045Z,14.89
2018-08-12T04:09:34.982Z,14.85
2018-08-12T04:10:34.954Z,14.86
2018-08-12T04:11:34.935Z,14.88
2018-08-12T04:12:34.905Z,15.02
2018-08-12T04:13:34.882Z,14.86
2018-08-12T04:14:34.856Z,14.99
2018-08-12T04:15:34.830Z,14.92
2018-08-12T04:16:34.801Z,14.97
2018-08-12T04:17:34.778Z,15.04
2018-08-12T04:18:34.746Z,15.02
2018-08-12T04:19:34.723Z,14.94
2018-08-12T04:20:34.698Z,14.94
2018-08-12T04:21:34.662Z,14.94
2018-08-12T04:22:34.642Z,15.02
2018-08-12T04:23:34.619Z,15.03
2018-08-12T04:24:34.588Z,15.03
2018-08-12T04:25:34.569Z,15.14
2018-08-12T04:26:34.534Z,15.06
2018-08-12T04:27:34.512Z,15.00
2018-08-12T04:28:34.483Z,15.09
2018-08-12T04:29:34.456Z,15.14
2018-08-12T04:30:34.434Z,15.15
2018-08-12T04:31:34.414Z,15.07
2018-08-12T04:32:34.380Z,15.07
2018-08-12T04:33:34.352Z,15.07
2018-08-12T04:34:34.325Z,15.14
2018-08-12T04:35:34.304Z,15.22
2018-08-12T04:36:34.271Z,15.21
2018-08-12T04:37:34.253Z,15.28
2018-08-12T04:38:34.226Z,15.14
2018-08-12T04:39:34.191Z,15.28
2018-08-12T04:40:34.175Z,15.28
2018-08-12T04:41:34.142Z,15.28
2018-08-12T04:42:34.172Z,15.33
2018-08-12T04:43:34.093Z,15.25
2018-08-12T04:44:34.063Z,15.36
2018-08-12T04:45:34.044Z,15.37
2018-08-12T04:46:34.017Z,15.35
2018-08-12T04:47:34.066Z,15.42
2018-08-12T04:48:33.962Z,15.31
2018-08-12T04:49:33.937Z,15.46
2018-08-12T04:50:33.915Z,15.40
2018-08-12T04:51:33.923Z,15.44
2018-08-12T04:52:33.854Z,15.44
2018-08-12T04:53:33.832Z,15.55
2018-08-12T04:54:33.814Z,15.54
2018-08-12T04:55:33.780Z,15.59
2018-08-12T04:56:33.753Z,15.59
2018-08-12T04:57:33.747Z,15.57
2018-08-12T04:58:33.698Z,15.62
2018-08-12T04:59:33.674Z,15.67
2018-08-12T05:00:33.647Z,15.62
2018-08-12T05:01:33.622Z,15.73
2018-08-12T05:02:33.591Z,15.79
2018-08-12T05:03:33.577Z,15.77
2018-08-12T05:04:40.701Z,15.80
2018-08-12T05:06:26.443Z,15.84
2018-08-12T05:07:26.378Z,15.92
2018-08-12T05:09:19.314Z,15.97
2018-08-12T05:10:19.266Z,16.00
2018-08-12T05:12:12.174Z,15.95
2018-08-12T05:13:12.117Z,16.04
2018-08-12T05:15:05.002Z,16.05
2018-08-12T05:16:04.972Z,16.10
2018-08-12T05:17:57.871Z,16.12
2018-08-12T05:18:57.818Z,16.13
2018-08-12T05:20:50.708Z,16.21
2018-08-12T05:21:50.677Z,16.24
2018-08-12T05:23:43.577Z,16.32
2018-08-12T05:24:43.527Z,16.39
2018-08-12T05:26:36.455Z,16.42
2018-08-12T05:27:36.395Z,16.47
2018-08-12T05:28:36.376Z,16.49
2018-08-12T05:29:36.356Z,16.50
2018-08-12T05:30:36.322Z,16.51
2018-08-12T05:31:36.300Z,16.51
2018-08-12T05:32:36.270Z,16.57
2018-08-12T05:33:36.244Z,16.56
2018-08-12T05:34:36.237Z,16.54
2018-08-12T05:35:36.212Z,16.56
2018-08-12T05:36:36.175Z,16.54
2018-08-12T05:37:36.134Z,16.58
2018-08-12T05:38:36.119Z,16.61
2018-08-12T05:39:36.087Z,16.65
2018-08-12T05:40:36.057Z,16.68
2018-08-12T05:41:36.049Z,16.71
2018-08-12T05:42:36.020Z,16.71
2018-08-12T05:43:35.988Z,16.81
2018-08-12T05:44:35.961Z,16.86
2018-08-12T05:45:35.934Z,16.84
2018-08-12T05:46:35.912Z,16.86
2018-08-12T05:47:35.881Z,16.94
2018-08-12T05:48:35.854Z,16.99
2018-08-12T05:49:35.837Z,16.93
2018-08-12T05:50:35.795Z,16.90
2018-08-12T05:51:35.906Z,16.97
2018-08-12T05:52:35.750Z,16.97
2018-08-12T05:53:35.730Z,16.97
2018-08-12T05:54:35.698Z,17.01
2018-08-12T05:55:35.672Z,17.14
2018-08-12T05:56:35.650Z,17.09
2018-08-12T05:57:35.619Z,17.08
2018-08-12T05:58:35.591Z,17.20
2018-08-12T05:59:35.569Z,17.20
2018-08-12T06:00:35.545Z,17.19
2018-08-12T06:01:35.515Z,17.29
2018-08-12T06:02:35.532Z,17.23
2018-08-12T06:03:35.549Z,17.29
2018-08-12T06:04:35.437Z,17.29
2018-08-12T06:05:35.414Z,17.31
2018-08-12T06:06:35.393Z,17.38
2018-08-12T06:07:35.362Z,17.39
2018-08-12T06:08:35.339Z,17.44
2018-08-12T06:09:35.314Z,17.48
2018-08-12T06:10:35.289Z,17.44
2018-08-12T06:11:35.259Z,17.51
2018-08-12T06:12:35.241Z,17.64
2018-08-12T06:13:35.206Z,17.60
2018-08-12T06:14:35.176Z,17.64
2018-08-12T06:15:35.204Z,17.65
2018-08-12T06:16:35.135Z,17.67
2018-08-12T06:17:35.100Z,17.70
2018-08-12T06:18:35.082Z,17.71
2018-08-12T06:19:35.048Z,17.74
2018-08-12T06:20:35.023Z,17.72
2018-08-12T06:21:35.016Z,17.67
2018-08-12T06:22:34.968Z,17.79
2018-08-12T06:23:34.955Z,17.86
2018-08-12T06:24:34.924Z,17.86
2018-08-12T06:25:34.902Z,17.90
2018-08-12T06:26:34.868Z,17.95
2018-08-12T06:27:34.871Z,18.00
2018-08-12T06:28:34.824Z,18.05
2018-08-12T06:29:34.789Z,18.13
2018-08-12T06:30:34.777Z,18.16
2018-08-12T06:31:34.757Z,18.13
2018-08-12T06:32:34.717Z,18.26
2018-08-12T06:33:34.696Z,18.34
2018-08-12T06:34:34.661Z,18.23
2018-08-12T06:35:34.646Z,18.29
2018-08-12T06:36:34.612Z,18.41
2018-08-12T06:37:34.585Z,18.47
2018-08-12T06:38:34.569Z,18.43
2018-08-12T06:39:34.539Z,18.47
2018-08-12T06:40:34.518Z,18.59
2018-08-12T06:41:34.481Z,18.68
2018-08-12T06:42:34.469Z,18.70
2018-08-12T06:43:34.433Z,18.77
2018-08-12T06:44:34.410Z,18.84
2018-08-12T06:45:34.415Z,18.75
2018-08-12T06:46:34.359Z,18.90
2018-08-12T06:47:34.336Z,18.98
2018-08-12T06:48:34.305Z,18.95
2018-08-12T06:49:34.282Z,19.09
2018-08-12T06:50:34.255Z,19.16
2018-08-12T06:51:34.230Z,19.14
2018-08-12T06:52:34.199Z,19.19
2018-08-12T06:53:34.179Z,19.30
2018-08-12T06:54:34.157Z,19.31
2018-08-12T06:55:34.154Z,19.29
2018-08-12T06:56:34.122Z,19.36
2018-08-12T06:57:34.083Z,19.36
2018-08-12T06:58:34.054Z,19.37
2018-08-12T06:59:34.025Z,19.45
2018-08-12T07:00:34.015Z,19.49
2018-08-12T07:01:33.971Z,19.36
2018-08-12T07:02:33.948Z,19.40
2018-08-12T07:03:33.969Z,19.41
2018-08-12T07:04:33.918Z,19.52
2018-08-12T07:05:33.875Z,19.54
2018-08-12T07:06:33.852Z,19.48
2018-08-12T07:07:33.871Z,19.54
2018-08-12T07:08:33.803Z,19.59
2018-08-12T07:09:33.794Z,19.59
2018-08-12T07:10:33.746Z,19.67
2018-08-12T07:11:33.725Z,19.73
2018-08-12T07:12:33.696Z,19.77
2018-08-12T07:13:33.674Z,19.77
2018-08-12T07:14:33.654Z,19.84
2018-08-12T07:15:33.658Z,19.84
2018-08-12T07:16:33.598Z,19.91
2018-08-12T07:17:33.568Z,19.91
2018-08-12T07:18:33.539Z,19.92
2018-08-12T07:19:33.522Z,19.88
2018-08-12T07:20:33.499Z,19.95
2018-08-12T07:21:33.464Z,19.99
2018-08-12T07:22:33.447Z,20.09
2018-08-12T07:23:33.420Z,20.04
2018-08-12T07:24:33.396Z,20.11
2018-08-12T07:25:33.373Z,20.07
2018-08-12T07:26:33.339Z,20.14
2018-08-12T07:27:33.324Z,20.07
2018-08-12T07:28:33.291Z,20.09
2018-08-12T07:29:33.284Z,20.11
2018-08-12T07:30:33.268Z,20.26
2018-08-12T07:31:33.216Z,20.18
2018-08-12T07:32:33.198Z,20.18
2018-08-12T07:33:33.165Z,20.19
2018-08-12T07:34:33.143Z,20.16
2018-08-12T07:35:33.121Z,20.25
2018-08-12T07:36:33.093Z,20.26
2018-08-12T07:37:33.069Z,20.28
2018-08-12T07:38:33.061Z,20.40
2018-08-12T07:39:33.025Z,20.36
2018-08-12T07:40:32.992Z,20.44
2018-08-12T07:41:32.964Z,20.55
2018-08-12T07:42:32.940Z,20.55
2018-08-12T07:43:32.920Z,20.56
2018-08-12T07:44:32.897Z,20.60
2018-08-12T07:45:32.861Z,20.67
2018-08-12T07:46:32.844Z,20.75
2018-08-12T07:47:32.819Z,20.66
2018-08-12T07:48:32.787Z,20.78
2018-08-12T07:49:32.773Z,20.82
2018-08-12T07:50:32.810Z,20.77
2018-08-12T07:51:32.723Z,20.88
2018-08-12T07:52:32.695Z,20.99
2018-08-12T07:53:32.662Z,21.05
2018-08-12T07:54:32.643Z,21.03
2018-08-12T07:55:32.657Z,21.00
2018-08-12T07:56:32.587Z,21.03
2018-08-12T07:57:32.564Z,21.07
2018-08-12T07:58:32.542Z,21.03
2018-08-12T07:59:32.516Z,21.06
2018-08-12T08:00:32.492Z,21.09
2018-08-12T08:01:32.464Z,21.09
2018-08-12T08:02:32.439Z,21.20
2018-08-12T08:03:32.422Z,21.14
2018-08-12T08:04:32.389Z,21.18
2018-08-12T08:05:32.368Z,21.24
2018-08-12T08:06:32.346Z,21.30
2018-08-12T08:07:32.312Z,21.22
2018-08-12T08:08:32.294Z,21.27
2018-08-12T08:09:32.266Z,21.30
2018-08-12T08:10:32.240Z,21.35
2018-08-12T08:11:32.214Z,21.37
2018-08-12T08:12:32.251Z,21.42
2018-08-12T08:13:32.167Z,21.42
2018-08-12T08:14:32.142Z,21.40
2018-08-12T08:15:32.117Z,21.39
2018-08-12T08:16:32.091Z,21.40
2018-08-12T08:17:32.070Z,21.42
2018-08-12T08:18:32.046Z,21.46
2018-08-12T08:19:32.015Z,21.50
2018-08-12T08:20:31.994Z,21.52
2018-08-12T08:21:31.977Z,21.45
2018-08-12T08:22:31.941Z,21.50
2018-08-12T08:23:31.923Z,21.50
2018-08-12T08:24:31.895Z,21.51
2018-08-12T08:25:31.989Z,21.52
2018-08-12T08:26:31.843Z,21.69
2018-08-12T08:27:31.836Z,21.60
2018-08-12T08:28:31.791Z,21.76
2018-08-12T08:29:31.770Z,21.72
2018-08-12T08:30:31.744Z,21.77
2018-08-12T08:31:31.824Z,21.76
2018-08-12T08:32:31.692Z,21.82
2018-08-12T08:33:31.675Z,21.91
2018-08-12T08:34:31.648Z,21.88
2018-08-12T08:35:31.620Z,21.91
2018-08-12T08:36:31.601Z,21.99
2018-08-12T08:37:31.568Z,21.93
2018-08-12T08:38:31.545Z,21.98
2018-08-12T08:39:31.528Z,21.95
2018-08-12T08:40:31.523Z,22.02
2018-08-12T08:41:31.492Z,21.99
2018-08-12T08:42:31.470Z,22.10
2018-08-12T08:43:31.445Z,22.14
2018-08-12T08:44:31.419Z,22.29
2018-08-12T08:45:31.397Z,22.26
2018-08-12T08:46:31.369Z,22.26
2018-08-12T08:47:31.343Z,22.33
2018-08-12T08:48:31.342Z,22.29
2018-08-12T08:49:31.292Z,22.38
2018-08-12T08:50:31.278Z,22.33
2018-08-12T08:51:31.241Z,22.36
2018-08-12T08:52:31.217Z,22.47
2018-08-12T08:53:31.201Z,22.50
2018-08-12T08:54:31.165Z,22.48
2018-08-12T08:55:31.165Z,22.59
2018-08-12T08:56:31.125Z,22.55
2018-08-12T08:57:31.095Z,22.55
2018-08-12T08:58:31.080Z,22.62
2018-08-12T08:59:31.043Z,22.72
2018-08-12T09:00:31.025Z,22.75
2018-08-12T09:01:31.148Z,22.73
2018-08-12T09:02:30.972Z,22.87
2018-08-12T09:03:30.954Z,22.80
2018-08-12T09:04:30.929Z,22.94
2018-08-12T09:05:30.921Z,22.93
2018-08-12T09:06:30.874Z,22.99
2018-08-12T09:07:30.859Z,23.00
2018-08-12T09:08:31.075Z,23.12
2018-08-12T09:09:30.808Z,23.06
2018-08-12T09:10:30.796Z,23.10
2018-08-12T09:11:30.752Z,23.13
2018-08-12T09:12:30.717Z,23.08
2018-08-12T09:13:30.720Z,23.12
2018-08-12T09:14:30.717Z,23.15
2018-08-12T09:15:30.641Z,23.18
2018-08-12T09:16:30.616Z,23.27
2018-08-12T09:17:30.596Z,23.32
2018-08-12T09:18:30.597Z,23.34
2018-08-12T09:19:30.554Z,23.34
2018-08-12T09:20:30.515Z,23.37
2018-08-12T09:21:30.497Z,23.54
2018-08-12T09:22:30.490Z,23.47
2018-08-12T09:23:30.444Z,23.44
2018-08-12T09:24:30.425Z,23.50
2018-08-12T09:25:30.402Z,23.55
2018-08-12T09:26:30.373Z,23.55
2018-08-12T09:27:30.350Z,23.56
2018-08-12T09:28:30.322Z,23.55
2018-08-12T09:29:30.323Z,23.59
2018-08-12T09:30:30.281Z,23.65
2018-08-12T09:31:30.251Z,23.71
2018-08-12T09:32:30.227Z,23.73
2018-08-12T09:33:30.200Z,23.81
2018-08-12T09:34:30.178Z,23.83
2018-08-12T09:35:30.159Z,23.93
2018-08-12T09:36:30.131Z,23.87
2018-08-12T09:37:30.110Z,23.96
2018-08-12T09:38:30.095Z,24.01
2018-08-12T09:39:30.055Z,23.95
2018-08-12T09:40:30.037Z,23.93
2018-08-12T09:41:30.011Z,23.96
2018-08-12T09:42:29.983Z,24.05
2018-08-12T09:43:29.974Z,24.06
2018-08-12T09:44:29.938Z,24.11
2018-08-12T09:45:29.919Z,24.13
2018-08-12T09:46:29.892Z,24.06
2018-08-12T09:47:29.882Z,24.05
2018-08-12T09:48:29.845Z,24.18
2018-08-12T09:49:29.819Z,24.18
2018-08-12T09:50:29.799Z,24.23
2018-08-12T09:51:29.864Z,24.18
2018-08-12T09:52:29.769Z,24.20
2018-08-12T09:53:29.731Z,24.32
2018-08-12T09:54:29.720Z,24.36
2018-08-12T09:55:29.701Z,24.30
2018-08-12T09:56:29.668Z,24.33
2018-08-12T09:57:29.674Z,24.32
2018-08-12T09:58:29.683Z,24.28
2018-08-12T09:59:29.604Z,24.30
2018-08-12T10:00:29.572Z,24.20
2018-08-12T10:01:29.558Z,24.23
2018-08-12T10:02:29.528Z,24.21
2018-08-12T10:03:29.521Z,24.23
2018-08-12T10:04:29.476Z,24.24
2018-08-12T10:05:29.462Z,24.21
2018-08-12T10:06:29.434Z,24.17
2018-08-12T10:07:29.415Z,24.21
2018-08-12T10:08:29.371Z,24.17
2018-08-12T10:09:29.338Z,24.28
2018-08-12T10:10:29.317Z,24.23
2018-08-12T10:11:29.303Z,24.32
2018-08-12T10:12:29.268Z,24.38
2018-08-12T10:13:29.253Z,24.33
2018-08-12T10:14:29.225Z,24.30
2018-08-12T10:15:29.230Z,24.36
2018-08-12T10:16:29.181Z,24.32
2018-08-12T10:17:29.152Z,24.33
2018-08-12T10:18:29.149Z,24.33
2018-08-12T10:19:29.105Z,24.35
2018-08-12T10:20:29.081Z,24.35
2018-08-12T10:21:29.108Z,24.36
2018-08-12T10:22:29.035Z,24.36
2018-08-12T10:23:29.009Z,24.36
2018-08-12T10:24:28.993Z,24.45
2018-08-12T10:25:28.960Z,24.43
2018-08-12T10:26:28.934Z,24.47
2018-08-12T10:27:28.919Z,24.54
2018-08-12T10:28:28.889Z,24.47
2018-08-12T10:29:28.870Z,24.54
2018-08-12T10:30:28.847Z,24.60
2018-08-12T10:31:28.814Z,24.53
2018-08-12T10:32:28.792Z,24.55
2018-08-12T10:33:28.781Z,24.61
2018-08-12T10:34:28.742Z,24.73
2018-08-12T10:35:28.724Z,24.60
2018-08-12T10:36:28.699Z,24.58
2018-08-12T10:37:28.675Z,24.65
2018-08-12T10:38:28.653Z,24.73
2018-08-12T10:39:28.631Z,24.76
2018-08-12T10:40:28.605Z,24.65
2018-08-12T10:41:28.583Z,24.80
2018-08-12T10:42:28.589Z,24.80
2018-08-12T10:43:28.533Z,24.81
2018-08-12T10:44:28.585Z,24.73
2018-08-12T10:45:28.485Z,24.78
2018-08-12T10:46:28.463Z,24.76
2018-08-12T10:47:28.444Z,24.77
2018-08-12T10:48:28.422Z,24.86
2018-08-12T10:49:28.394Z,24.99
2018-08-12T10:50:28.369Z,24.93
2018-08-12T10:51:28.348Z,24.91
2018-08-12T10:52:28.335Z,24.92
2018-08-12T10:53:28.299Z,24.93
2018-08-12T10:54:28.276Z,24.93
2018-08-12T10:55:28.251Z,24.85
2018-08-12T10:56:28.227Z,24.88
2018-08-12T10:57:28.210Z,24.88
2018-08-12T10:58:28.186Z,24.88
2018-08-12T10:59:28.188Z,24.93
2018-08-12T11:00:28.137Z,24.92
2018-08-12T11:01:28.126Z,24.95
2018-08-12T11:02:28.089Z,24.92
2018-08-12T11:03:28.060Z,24.91
2018-08-12T11:04:28.036Z,25.03
2018-08-12T11:05:28.020Z,25.01
2018-08-12T11:06:27.994Z,24.92
2018-08-12T11:07:27.988Z,24.92
2018-08-12T11:08:27.950Z,24.95
2018-08-12T11:09:27.919Z,24.96
2018-08-12T11:10:27.905Z,24.96
2018-08-12T11:11:27.869Z,24.92
2018-08-12T11:12:27.924Z,24.85
2018-08-12T11:13:27.829Z,24.91
2018-08-12T11:14:27.802Z,24.77
2018-08-12T11:15:27.779Z,24.92
2018-08-12T11:16:27.758Z,24.84
2018-08-12T11:17:27.734Z,24.86
2018-08-12T11:18:27.710Z,24.99
2018-08-12T11:19:27.682Z,24.95
2018-08-12T11:20:27.667Z,24.88
2018-08-12T11:21:27.642Z,25.03
2018-08-12T11:22:27.614Z,25.03
2018-08-12T11:23:27.586Z,25.07
2018-08-12T11:24:27.564Z,24.95
2018-08-12T11:25:27.543Z,25.08
2018-08-12T11:26:27.521Z,24.85
2018-08-12T11:27:27.503Z,24.91
2018-08-12T11:28:27.520Z,24.84
2018-08-12T11:29:27.453Z,24.80
2018-08-12T11:30:27.422Z,24.86
2018-08-12T11:31:27.407Z,24.88
2018-08-12T11:32:27.378Z,24.88
2018-08-12T11:33:27.357Z,24.85
2018-08-12T11:34:27.336Z,24.88
2018-08-12T11:35:27.307Z,24.92
2018-08-12T11:36:27.280Z,24.96
2018-08-12T11:37:27.268Z,24.91
2018-08-12T11:38:27.239Z,25.03
2018-08-12T11:39:27.217Z,25.01
2018-08-12T11:40:27.188Z,25.13
2018-08-12T11:41:27.165Z,25.21
2018-08-12T11:42:27.147Z,25.23
2018-08-12T11:43:27.116Z,25.25
2018-08-12T11:44:27.100Z,25.26
2018-08-12T11:45:27.068Z,25.29
2018-08-12T11:46:27.045Z,25.31
2018-08-12T11:47:27.062Z,25.41
2018-08-12T11:48:26.999Z,25.32
2018-08-12T11:49:26.991Z,25.31
2018-08-12T11:50:26.956Z,25.29
2018-08-12T11:51:26.932Z,25.35
2018-08-12T11:52:26.906Z,25.29
2018-08-12T11:53:26.888Z,25.31
2018-08-12T11:54:26.876Z,25.31
2018-08-12T11:55:26.832Z,25.29
2018-08-12T11:56:26.809Z,25.38
2018-08-12T11:57:26.789Z,25.41
2018-08-12T11:58:26.762Z,25.50
2018-08-12T11:59:26.740Z,25.50
2018-08-12T12:00:26.733Z,25.51
2018-08-12T12:01:26.698Z,25.43
2018-08-12T12:02:26.673Z,25.54
2018-08-12T12:03:26.651Z,25.46
2018-08-12T12:04:26.657Z,25.44
2018-08-12T12:05:26.603Z,25.51
2018-08-12T12:06:26.576Z,25.50
2018-08-12T12:07:26.558Z,25.44
2018-08-12T12:08:26.533Z,25.48
2018-08-12T12:09:26.507Z,25.50
2018-08-12T12:10:26.484Z,25.58
2018-08-12T12:11:26.465Z,25.68
2018-08-12T12:12:26.441Z,25.78
2018-08-12T12:13:26.416Z,25.85
2018-08-12T12:14:26.396Z,25.85
2018-08-12T12:15:26.370Z,25.98
2018-08-12T12:16:26.353Z,26.00
2018-08-12T12:17:26.319Z,26.03
2018-08-12T12:18:26.300Z,26.03
2018-08-12T12:19:26.271Z,26.03
2018-08-12T12:20:26.261Z,26.03
2018-08-12T12:21:26.231Z,25.99
2018-08-12T12:22:26.199Z,25.95
2018-08-12T12:23:26.190Z,25.99
2018-08-12T12:24:26.161Z,26.00
2018-08-12T12:25:26.135Z,25.95
2018-08-12T12:26:26.108Z,25.99
2018-08-12T12:27:26.083Z,25.99
2018-08-12T12:28:26.060Z,26.06
2018-08-12T12:29:26.039Z,26.10
2018-08-12T12:30:26.021Z,26.10
2018-08-12T12:31:25.995Z,26.13
2018-08-12T12:32:25.965Z,26.10
2018-08-12T12:33:25.952Z,26.16
2018-08-12T12:34:25.956Z,26.21
2018-08-12T12:35:25.957Z,26.26
2018-08-12T12:36:25.881Z,26.16
2018-08-12T12:37:25.851Z,26.23
2018-08-12T12:38:25.828Z,26.21
2018-08-12T12:39:25.812Z,26.22
2018-08-12T12:40:25.787Z,26.23
2018-08-12T12:41:25.769Z,26.48
2018-08-12T12:42:25.746Z,26.48
2018-08-12T12:43:25.719Z,26.56
2018-08-12T12:44:25.700Z,26.53
2018-08-12T12:45:25.666Z,26.59
2018-08-12T12:46:25.643Z,26.66
2018-08-12T12:47:25.627Z,26.85
2018-08-12T12:48:25.601Z,26.84
2018-08-12T12:49:25.630Z,26.85
2018-08-12T12:50:25.560Z,26.92
2018-08-12T12:51:25.534Z,26.89
2018-08-12T12:52:25.511Z,26.92
2018-08-12T12:53:25.484Z,27.02
2018-08-12T12:54:25.462Z,27.07
2018-08-12T12:55:25.438Z,27.17
2018-08-12T12:56:25.572Z,27.20
2018-08-12T12:57:25.397Z,27.11
2018-08-12T12:58:25.376Z,27.12
2018-08-12T12:59:25.351Z,27.10
2018-08-12T13:00:25.320Z,27.12
2018-08-12T13:01:25.300Z,27.11
2018-08-12T13:02:25.285Z,27.11
2018-08-12T13:03:25.260Z,27.07
2018-08-12T13:04:25.231Z,27.07
2018-08-12T13:05:25.233Z,27.15